首页
METAR-TAF:

METAR-TAF

机场 :

Naval Station Mayport (Adm. David L. McDonald Field)

Mayport, 佛罗里达州, 美国

纬度: 30-23-45N, 经度: 081-25-21W, 海拔: 5米

当前天气观测

该预报发布于1小时和5分钟前的19:52 UTC
静风
温度 18°C
湿度 83%
气压 1021 hPa
能見度: 11.3公里
少量云层高于4000英尺
多云层高于5000英尺
阴天层高于10000英尺
小雨

METAR: KNRB 131952Z 00000KT 7SM -RA FEW040 BKN050 OVC100 18/15 A3014 RMK AO2 RAB30 SLP206 P0000 T01780150 $

时间: 15:57 (20:57 UTC)

预报

预报有效从13日的 15点(UTC)到 14日的 15点(UTC)
风速10节,风向东转东北
能见度10公里或以上
散云层高于4000英尺
多云层高于7000英尺
阴天层高于25000英尺
附近有阵雨
短暂存在
从 13日的 15点(UTC)到 13日的 18点(UTC)
能見度: 8000
散云层高于2000英尺
多云层高于4000英尺
阴天层高于7000英尺
小阵雨
从 13日的 1800点(UTC)
风速10节,风向
能见度10公里或以上
多云层高于4000英尺
多云层高于7000英尺
阴天层高于25000英尺
附近有阵雨
从 14日的 0200点(UTC)
风速8节,风向东南
能见度10公里或以上
散云层高于2000英尺
多云层高于4000英尺
阴天层高于7000英尺
短暂存在
从 14日的 08点(UTC)到 14日的 12点(UTC)
能見度: 8000
多云层高于1000英尺
阴天层高于4000英尺
轻雾

TAF: KNRB 1315/1415 06010KT 9999 VCSH SCT040 BKN070 OVC250 QNH3018INS TEMPO 1315/1318 8000 -SHRA SCT020 BKN040 OVC070 FM131800 08010KT 9999 VCSH BKN040 BKN070 OVC250 QNH3009INS FM140200 13008KT 9999 SCT020 BKN040 OVC070 QNH3003INS TEMPO 1408/1412 8000 BR BKN010 OVC040 T19/1318Z T17/1409Z FN20022

超过4000个机场的气象观测和天气预报(METAR&TAF报告)。

可查询的气象台以黄色和红色小点在地图上表示。

将鼠标移到小点上方,可查看气象台名称。

然后点击查看天气观测和预报。

如需切换地图:点击带黑十字的绿色按钮放大地图;点击带横线的绿色按钮缩小地图;或者点击绿色箭头查看邻近地区的地图。


METAR-TAF: